createdAt,value
2023-05-10T00:02:23.263Z,38.10
2023-05-10T00:04:50.546Z,38.04
2023-05-10T00:07:18.521Z,38.06
2023-05-10T00:09:45.698Z,38.06
2023-05-10T00:12:13.114Z,37.95
2023-05-10T00:14:40.488Z,37.98
2023-05-10T00:17:07.680Z,37.89
2023-05-10T00:19:34.921Z,38.11
2023-05-10T00:22:02.538Z,38.07
2023-05-10T00:24:29.755Z,38.05
2023-05-10T00:26:56.905Z,38.00
2023-05-10T00:29:24.181Z,37.88
2023-05-10T00:31:51.507Z,37.90
2023-05-10T00:34:18.966Z,37.98
2023-05-10T00:36:46.484Z,37.99
2023-05-10T00:39:13.703Z,37.97
2023-05-10T00:41:41.406Z,38.16
2023-05-10T00:44:08.777Z,38.11
2023-05-10T00:46:37.056Z,38.15
2023-05-10T00:49:04.355Z,37.93
2023-05-10T00:51:32.282Z,38.10
2023-05-10T00:54:00.167Z,38.01
2023-05-10T00:56:29.439Z,38.05
2023-05-10T00:58:57.564Z,38.05
2023-05-10T01:01:24.736Z,38.05
2023-05-10T01:03:51.938Z,37.91
2023-05-10T01:06:19.143Z,38.21
2023-05-10T01:08:46.356Z,38.16
2023-05-10T01:11:13.847Z,38.20
2023-05-10T01:13:43.315Z,38.25
2023-05-10T01:16:10.738Z,38.21
2023-05-10T01:18:40.528Z,38.17
2023-05-10T01:21:24.939Z,38.13
2023-05-10T01:24:15.614Z,38.29
2023-05-10T01:27:08.501Z,38.33
2023-05-10T01:30:09.264Z,38.19
2023-05-10T01:32:53.761Z,38.30
2023-05-10T01:35:47.586Z,38.30
2023-05-10T01:38:40.362Z,38.31
2023-05-10T01:41:18.820Z,38.30
2023-05-10T01:44:11.051Z,38.25
2023-05-10T01:46:39.855Z,38.20
2023-05-10T01:49:12.760Z,38.42
2023-05-10T01:51:48.045Z,38.28
2023-05-10T01:54:15.874Z,38.47
2023-05-10T01:56:43.581Z,38.38
2023-05-10T01:59:14.985Z,38.35
2023-05-10T02:01:42.560Z,38.42
2023-05-10T02:04:10.720Z,38.35
2023-05-10T02:06:38.898Z,38.52
2023-05-10T02:09:06.947Z,38.51
2023-05-10T02:11:34.637Z,38.38
2023-05-10T02:14:02.126Z,38.47
2023-05-10T02:16:31.861Z,38.22
2023-05-10T02:19:00.915Z,38.54
2023-05-10T02:21:29.288Z,38.34
2023-05-10T02:23:56.814Z,38.56
2023-05-10T02:26:26.167Z,38.58
2023-05-10T02:28:54.268Z,38.67
2023-05-10T02:31:22.017Z,38.62
2023-05-10T02:33:49.834Z,38.51
2023-05-10T02:36:17.364Z,38.65
2023-05-10T02:38:45.416Z,38.54
2023-05-10T02:41:12.942Z,38.43
2023-05-10T02:46:09.004Z,38.72
2023-05-10T02:48:36.233Z,38.65
2023-05-10T02:51:08.152Z,38.68
2023-05-10T02:53:37.796Z,38.70
2023-05-10T02:56:09.307Z,38.63
2023-05-10T02:58:36.502Z,38.77
2023-05-10T03:01:03.729Z,38.48
2023-05-10T03:03:30.965Z,38.64
2023-05-10T03:05:59.442Z,38.86
2023-05-10T03:08:26.754Z,38.71
2023-05-10T03:11:15.038Z,38.65
2023-05-10T03:13:57.130Z,38.77
2023-05-10T03:16:30.687Z,38.83
2023-05-10T03:19:10.393Z,38.76
2023-05-10T03:21:39.438Z,38.78
2023-05-10T03:24:07.262Z,39.01
2023-05-10T03:26:34.933Z,38.99
2023-05-10T03:29:02.768Z,38.95
2023-05-10T03:31:30.059Z,39.12
2023-05-10T03:33:57.368Z,38.83
2023-05-10T03:36:24.694Z,39.08
2023-05-10T03:38:51.854Z,39.03
2023-05-10T03:41:19.021Z,38.80
2023-05-10T03:43:46.185Z,38.87
2023-05-10T03:46:13.405Z,38.92
2023-05-10T03:48:40.614Z,38.83
2023-05-10T03:51:07.930Z,38.87
2023-05-10T03:53:35.248Z,38.84
2023-05-10T03:56:02.424Z,38.94
2023-05-10T03:58:29.690Z,38.84
2023-05-10T04:00:56.946Z,38.91
2023-05-10T04:03:24.444Z,38.99
2023-05-10T04:06:01.270Z,38.99
2023-05-10T04:08:28.632Z,38.93
2023-05-10T04:10:55.811Z,39.08
2023-05-10T04:13:23.622Z,39.14
2023-05-10T04:15:50.811Z,38.86
2023-05-10T04:18:18.083Z,39.04
2023-05-10T04:20:45.246Z,38.97
2023-05-10T04:23:12.481Z,38.96
2023-05-10T04:25:39.651Z,38.91
2023-05-10T04:28:07.300Z,39.00
2023-05-10T04:30:34.570Z,38.93
2023-05-10T04:33:02.928Z,38.96
2023-05-10T04:35:30.472Z,39.01
2023-05-10T04:37:57.697Z,38.91
2023-05-10T04:40:24.863Z,39.03
2023-05-10T04:42:52.476Z,39.01
2023-05-10T04:45:19.664Z,38.90
2023-05-10T04:47:46.879Z,38.93
2023-05-10T04:50:14.102Z,38.89
2023-05-10T04:52:41.364Z,38.92
2023-05-10T04:55:10.507Z,39.09
2023-05-10T04:57:37.718Z,38.81
2023-05-10T05:00:05.343Z,39.06
2023-05-10T05:02:32.577Z,39.57
2023-05-10T05:05:00.050Z,39.52
2023-05-10T05:07:27.225Z,39.73
2023-05-10T05:09:54.412Z,39.48
2023-05-10T05:12:21.579Z,39.32
2023-05-10T05:14:49.001Z,39.12
2023-05-10T05:17:16.240Z,39.12
2023-05-10T05:19:43.446Z,38.97
2023-05-10T05:22:10.615Z,39.01
2023-05-10T05:24:41.040Z,39.57
2023-05-10T05:27:08.391Z,39.28
2023-05-10T05:29:35.892Z,39.36
2023-05-10T05:32:03.226Z,39.18
2023-05-10T05:34:30.641Z,39.14
2023-05-10T05:36:57.818Z,39.17
2023-05-10T05:39:24.986Z,39.22
2023-05-10T05:41:52.151Z,39.22
2023-05-10T05:44:19.353Z,39.13
2023-05-10T05:46:46.541Z,39.02
2023-05-10T05:49:13.788Z,38.25
2023-05-10T05:51:41.023Z,38.96
2023-05-10T05:54:08.486Z,38.89
2023-05-10T05:56:35.902Z,38.85
2023-05-10T05:59:03.179Z,38.64
2023-05-10T06:01:30.418Z,38.74
2023-05-10T06:03:57.837Z,38.66
2023-05-10T06:06:25.249Z,38.71
2023-05-10T06:08:52.424Z,38.65
2023-05-10T06:11:19.866Z,38.62
2023-05-10T06:13:48.061Z,38.49
2023-05-10T06:16:15.310Z,38.17
2023-05-10T06:18:42.542Z,38.23
2023-05-10T06:21:10.287Z,37.94
2023-05-10T06:23:37.531Z,37.50
2023-05-10T06:26:04.829Z,38.31
2023-05-10T06:28:33.178Z,38.19
2023-05-10T06:31:00.697Z,38.37
2023-05-10T06:33:28.505Z,38.39
2023-05-10T06:35:55.741Z,38.68
2023-05-10T06:38:23.100Z,38.37
2023-05-10T06:40:50.471Z,38.37
2023-05-10T06:43:17.759Z,38.47
2023-05-10T06:45:44.938Z,38.23
2023-05-10T06:48:12.219Z,38.06
2023-05-10T06:50:39.489Z,38.63
2023-05-10T06:53:06.656Z,38.98
2023-05-10T06:55:34.072Z,38.73
2023-05-10T06:58:01.318Z,38.92
2023-05-10T07:00:28.534Z,39.29
2023-05-10T07:02:56.055Z,39.02
2023-05-10T07:05:23.563Z,39.05
2023-05-10T07:07:50.847Z,39.23
2023-05-10T07:10:18.582Z,39.19
2023-05-10T07:12:46.052Z,39.13
2023-05-10T07:15:13.310Z,39.24
2023-05-10T07:17:42.498Z,39.30
2023-05-10T07:20:11.471Z,39.24
2023-05-10T07:22:38.761Z,39.02
2023-05-10T07:25:06.322Z,39.31
2023-05-10T07:27:33.623Z,39.24
2023-05-10T07:30:01.512Z,39.36
2023-05-10T07:32:29.151Z,39.38
2023-05-10T07:34:56.431Z,39.43
2023-05-10T07:37:23.662Z,39.38
2023-05-10T07:39:50.875Z,39.41
2023-05-10T07:42:18.120Z,39.45
2023-05-10T07:44:45.368Z,39.49
2023-05-10T07:47:12.625Z,39.31
2023-05-10T07:49:39.872Z,39.40
2023-05-10T07:52:07.064Z,39.44
2023-05-10T07:54:34.855Z,39.44
2023-05-10T07:57:02.093Z,39.61
2023-05-10T07:59:29.311Z,39.51
2023-05-10T08:01:57.169Z,39.62
2023-05-10T08:04:25.071Z,39.62
2023-05-10T08:06:52.299Z,39.71
2023-05-10T08:09:24.639Z,39.56
2023-05-10T08:11:52.078Z,39.60
2023-05-10T08:14:19.367Z,39.69
2023-05-10T08:16:46.540Z,39.57
2023-05-10T08:19:13.788Z,39.73
2023-05-10T08:21:43.275Z,39.79
2023-05-10T08:24:10.512Z,39.57
2023-05-10T08:26:37.772Z,39.75
2023-05-10T08:29:05.050Z,39.53
2023-05-10T08:31:32.342Z,39.59
2023-05-10T08:33:59.512Z,39.74
2023-05-10T08:36:27.410Z,39.86
2023-05-10T08:38:54.958Z,39.81
2023-05-10T08:41:22.704Z,39.87
2023-05-10T08:43:50.808Z,39.82
2023-05-10T08:46:22.079Z,39.69
2023-05-10T08:48:51.184Z,39.70
2023-05-10T08:51:26.301Z,39.71
2023-05-10T08:53:53.665Z,39.77
2023-05-10T08:56:21.765Z,39.86
2023-05-10T08:58:51.774Z,39.68
2023-05-10T09:01:20.191Z,39.95
2023-05-10T09:03:48.746Z,39.86
2023-05-10T09:06:16.794Z,39.63
2023-05-10T09:08:44.351Z,39.97
2023-05-10T09:11:12.580Z,39.69
2023-05-10T09:13:39.905Z,39.86
2023-05-10T09:16:20.263Z,39.93
2023-05-10T09:18:48.823Z,39.92
2023-05-10T09:21:16.263Z,39.78
2023-05-10T09:23:48.616Z,39.95
2023-05-10T09:26:16.324Z,40.03
2023-05-10T09:28:54.620Z,39.74
2023-05-10T09:31:22.092Z,39.82
2023-05-10T09:33:50.487Z,39.86
2023-05-10T09:36:17.945Z,40.00
2023-05-10T09:38:53.664Z,39.86
2023-05-10T09:41:24.691Z,39.92
2023-05-10T09:43:56.421Z,39.88
2023-05-10T09:46:24.646Z,39.85
2023-05-10T09:48:52.259Z,39.92
2023-05-10T09:51:23.725Z,40.03
2023-05-10T09:54:14.585Z,39.99
2023-05-10T09:56:42.351Z,40.23
2023-05-10T09:59:11.782Z,40.03
2023-05-10T10:01:39.701Z,40.30
2023-05-10T10:04:08.396Z,40.39
2023-05-10T10:06:39.889Z,40.30
2023-05-10T10:09:07.992Z,40.33
2023-05-10T10:11:39.286Z,40.53
2023-05-10T10:14:07.329Z,40.37
2023-05-10T10:16:34.747Z,40.79
2023-05-10T10:19:02.574Z,40.57
2023-05-10T10:21:30.318Z,40.34
2023-05-10T10:23:57.489Z,40.62
2023-05-10T10:26:26.313Z,40.60
2023-05-10T10:29:20.811Z,40.41
2023-05-10T10:31:56.698Z,40.66
2023-05-10T10:34:29.125Z,40.62
2023-05-10T10:36:57.529Z,40.40
2023-05-10T10:39:28.190Z,40.61
2023-05-10T10:41:57.214Z,40.55
2023-05-10T10:44:31.850Z,40.45
2023-05-10T10:47:03.536Z,40.20
2023-05-10T10:49:41.070Z,40.10
2023-05-10T10:52:24.339Z,40.02
2023-05-10T10:54:53.326Z,40.06
2023-05-10T10:57:22.632Z,40.05
2023-05-10T10:59:50.486Z,40.06
2023-05-10T11:02:46.898Z,40.29
2023-05-10T11:05:37.376Z,40.05
2023-05-10T11:08:12.034Z,40.24
2023-05-10T11:10:39.391Z,40.30
2023-05-10T11:13:12.443Z,40.65
2023-05-10T11:15:40.822Z,40.82
2023-05-10T11:18:34.563Z,41.04
2023-05-10T11:21:11.381Z,40.40
2023-05-10T11:23:44.056Z,40.51
2023-05-10T11:26:12.038Z,40.54
2023-05-10T11:28:47.047Z,40.42
2023-05-10T11:31:18.352Z,40.66
2023-05-10T11:33:50.214Z,40.78
2023-05-10T11:36:26.470Z,40.51
2023-05-10T11:38:54.274Z,40.77
2023-05-10T11:41:22.965Z,40.59
2023-05-10T11:43:54.904Z,40.76
2023-05-10T11:46:26.917Z,40.72
2023-05-10T11:48:56.578Z,40.64
2023-05-10T11:51:25.479Z,40.85
2023-05-10T11:53:56.050Z,40.49
2023-05-10T11:56:24.278Z,40.60
2023-05-10T11:58:56.787Z,40.71
2023-05-10T12:01:27.364Z,40.38
2023-05-10T12:03:59.577Z,40.32
2023-05-10T12:06:32.147Z,40.43
2023-05-10T12:08:59.909Z,40.29
2023-05-10T12:11:28.443Z,40.43
2023-05-10T12:13:57.116Z,40.20
2023-05-10T12:16:25.999Z,40.53
2023-05-10T12:18:54.974Z,40.63
2023-05-10T12:21:22.337Z,40.53
2023-05-10T12:23:54.530Z,40.44
2023-05-10T12:26:25.806Z,40.42
2023-05-10T12:28:54.163Z,40.56
2023-05-10T12:31:21.777Z,40.55
2023-05-10T12:33:50.253Z,40.38
2023-05-10T12:36:18.901Z,40.60
2023-05-10T12:38:49.861Z,40.32
2023-05-10T12:41:18.924Z,40.33
2023-05-10T12:43:47.294Z,40.54
2023-05-10T12:46:19.578Z,40.51
2023-05-10T12:48:48.353Z,40.26
2023-05-10T12:51:18.350Z,40.48
2023-05-10T12:53:49.350Z,40.30
2023-05-10T12:56:16.885Z,40.17
2023-05-10T12:58:48.912Z,40.42
2023-05-10T13:01:16.472Z,40.20
2023-05-10T13:03:46.532Z,40.47
2023-05-10T13:06:15.073Z,40.16
2023-05-10T13:08:42.283Z,40.23
2023-05-10T13:11:09.487Z,40.25
2023-05-10T13:13:36.642Z,40.45
2023-05-10T13:16:03.849Z,40.46
2023-05-10T13:18:31.203Z,40.29
2023-05-10T13:20:58.397Z,40.29
2023-05-10T13:23:25.629Z,40.38
2023-05-10T13:25:53.016Z,40.33
2023-05-10T13:28:20.198Z,40.29
2023-05-10T13:30:47.357Z,40.37
2023-05-10T13:33:14.738Z,40.62
2023-05-10T13:35:41.984Z,40.40
2023-05-10T13:38:09.275Z,40.35
2023-05-10T13:40:36.976Z,40.36
2023-05-10T13:43:04.189Z,40.67
2023-05-10T13:45:31.349Z,40.63
2023-05-10T13:47:58.569Z,40.34
2023-05-10T13:50:25.809Z,40.44
2023-05-10T13:52:53.002Z,40.63
2023-05-10T13:55:20.351Z,40.59
2023-05-10T13:57:47.658Z,40.50
2023-05-10T14:00:15.118Z,40.68
2023-05-10T14:02:42.358Z,40.69
2023-05-10T14:05:09.776Z,40.93
2023-05-10T14:07:36.995Z,40.60
2023-05-10T14:10:04.415Z,40.73
2023-05-10T14:12:31.815Z,40.40
2023-05-10T14:14:59.315Z,40.60
2023-05-10T14:17:26.629Z,40.51
2023-05-10T14:19:54.326Z,40.66
2023-05-10T14:22:21.761Z,40.79
2023-05-10T14:24:49.140Z,40.72
2023-05-10T14:27:16.882Z,40.81
2023-05-10T14:29:44.267Z,40.71
2023-05-10T14:32:11.623Z,40.73
2023-05-10T14:34:38.824Z,40.65
2023-05-10T14:37:06.733Z,40.86
2023-05-10T14:39:34.133Z,40.80
2023-05-10T14:42:01.287Z,40.63
2023-05-10T14:44:28.652Z,40.82
2023-05-10T14:46:56.542Z,40.71
2023-05-10T14:49:26.604Z,40.88
2023-05-10T14:51:53.893Z,41.01
2023-05-10T14:54:21.603Z,41.05
2023-05-10T14:56:50.748Z,40.88
2023-05-10T14:59:17.931Z,40.88
2023-05-10T15:01:46.133Z,40.71
2023-05-10T15:04:14.446Z,40.76
2023-05-10T15:06:42.569Z,40.71
2023-05-10T15:09:09.934Z,40.99
2023-05-10T15:11:37.624Z,41.02
2023-05-10T15:14:04.810Z,40.95
2023-05-10T15:16:35.033Z,40.95
2023-05-10T15:19:03.269Z,41.09
2023-05-10T15:21:35.972Z,41.22
2023-05-10T15:24:03.197Z,41.03
2023-05-10T15:26:30.367Z,41.13
2023-05-10T15:28:57.616Z,41.40
2023-05-10T15:31:24.886Z,41.33
2023-05-10T15:33:52.266Z,41.25
2023-05-10T15:36:20.577Z,41.38
2023-05-10T15:38:47.831Z,41.48
2023-05-10T15:41:15.188Z,41.52
2023-05-10T15:43:42.623Z,41.40
2023-05-10T15:46:09.865Z,41.50
2023-05-10T15:48:37.729Z,41.44
2023-05-10T15:51:04.912Z,41.42
2023-05-10T15:53:32.110Z,41.49
2023-05-10T15:55:59.628Z,41.37
2023-05-10T15:58:26.810Z,41.34
2023-05-10T16:00:54.323Z,41.39
2023-05-10T16:03:21.574Z,41.58
2023-05-10T16:05:48.859Z,41.80
2023-05-10T16:08:16.031Z,41.74
2023-05-10T16:10:43.259Z,41.68
2023-05-10T16:13:10.552Z,41.77
2023-05-10T16:15:37.959Z,42.02
2023-05-10T16:18:05.311Z,42.15
2023-05-10T16:20:33.278Z,42.17
2023-05-10T16:23:06.148Z,42.29
2023-05-10T16:25:33.586Z,42.68
2023-05-10T16:28:01.588Z,42.28
2023-05-10T16:30:30.398Z,42.55
2023-05-10T16:32:58.161Z,42.22
2023-05-10T16:35:25.677Z,42.07
2023-05-10T16:37:53.026Z,42.41
2023-05-10T16:40:20.304Z,42.29
2023-05-10T16:42:47.839Z,42.21
2023-05-10T16:45:16.369Z,42.54
2023-05-10T16:47:43.761Z,42.61
2023-05-10T16:50:11.507Z,42.35
2023-05-10T16:52:38.936Z,42.48
2023-05-10T16:55:06.555Z,42.51
2023-05-10T16:57:33.766Z,42.68
2023-05-10T17:00:01.024Z,43.03
2023-05-10T17:02:28.600Z,42.94
2023-05-10T17:04:56.335Z,43.24
2023-05-10T17:07:26.142Z,43.24
2023-05-10T17:09:53.571Z,43.53
2023-05-10T17:12:20.771Z,43.96
2023-05-10T17:14:48.007Z,43.95
2023-05-10T17:17:15.320Z,44.44
2023-05-10T17:19:45.338Z,44.51
2023-05-10T17:22:14.398Z,44.97
2023-05-10T17:24:41.702Z,44.83
2023-05-10T17:27:09.003Z,45.14
2023-05-10T17:29:36.306Z,45.11
2023-05-10T17:32:03.611Z,45.06
2023-05-10T17:34:30.799Z,45.36
2023-05-10T17:36:58.021Z,45.69
2023-05-10T17:39:25.372Z,45.66
2023-05-10T17:41:52.553Z,45.49
2023-05-10T17:44:19.884Z,45.09
2023-05-10T17:46:47.729Z,45.33
2023-05-10T17:49:15.287Z,45.41
2023-05-10T17:51:44.037Z,45.54
2023-05-10T17:54:11.234Z,45.60
2023-05-10T17:56:38.395Z,45.14
2023-05-10T17:59:05.761Z,45.49
2023-05-10T18:01:32.998Z,45.41
2023-05-10T18:04:00.462Z,45.42
2023-05-10T18:06:27.645Z,45.58
2023-05-10T18:08:55.209Z,45.36
2023-05-10T18:11:22.845Z,45.68
2023-05-10T18:13:50.047Z,45.46
2023-05-10T18:16:17.351Z,45.64
2023-05-10T18:18:44.644Z,45.77
2023-05-10T18:21:11.811Z,45.80
2023-05-10T18:23:39.263Z,45.55
2023-05-10T18:26:08.260Z,45.81
2023-05-10T18:28:36.469Z,45.77
2023-05-10T18:31:03.669Z,45.96
2023-05-10T18:33:31.210Z,46.04
2023-05-10T18:35:58.387Z,45.55
2023-05-10T18:38:26.358Z,45.90
2023-05-10T18:40:53.609Z,45.71
2023-05-10T18:43:21.302Z,45.67
2023-05-10T18:45:48.522Z,45.78
2023-05-10T18:48:15.758Z,45.92
2023-05-10T18:50:43.170Z,45.86
2023-05-10T18:53:10.350Z,46.03
2023-05-10T18:55:37.500Z,46.15
2023-05-10T18:58:04.676Z,46.22
2023-05-10T19:00:32.092Z,46.36
2023-05-10T19:02:59.273Z,46.19
2023-05-10T19:05:30.020Z,46.32
2023-05-10T19:07:58.291Z,46.25
2023-05-10T19:10:25.455Z,46.41
2023-05-10T19:12:52.694Z,46.12
2023-05-10T19:15:21.770Z,46.13
2023-05-10T19:17:50.273Z,46.36
2023-05-10T19:20:17.832Z,46.45
2023-05-10T19:23:02.099Z,46.52
2023-05-10T19:25:34.625Z,46.58
2023-05-10T19:28:01.765Z,46.40
2023-05-10T19:30:29.045Z,46.48
2023-05-10T19:32:56.564Z,46.49
2023-05-10T19:35:24.242Z,46.80
2023-05-10T19:37:52.763Z,46.54
2023-05-10T19:40:19.939Z,46.64
2023-05-10T19:42:47.521Z,46.54
2023-05-10T19:45:15.893Z,46.69
2023-05-10T19:47:43.621Z,46.80
2023-05-10T19:50:12.403Z,46.74
2023-05-10T19:52:39.819Z,46.69
2023-05-10T19:55:07.851Z,46.79
2023-05-10T19:57:35.037Z,46.44
2023-05-10T20:00:02.216Z,46.92
2023-05-10T20:02:29.402Z,46.79
2023-05-10T20:04:56.654Z,46.89
2023-05-10T20:07:23.879Z,47.28
2023-05-10T20:09:51.088Z,48.37
2023-05-10T20:12:18.367Z,49.20
2023-05-10T20:14:46.072Z,50.22
2023-05-10T20:17:13.745Z,51.79
2023-05-10T20:19:41.245Z,50.71
2023-05-10T20:22:09.368Z,50.35
2023-05-10T20:24:37.055Z,50.43
2023-05-10T20:27:04.875Z,50.10
2023-05-10T20:29:34.989Z,50.26
2023-05-10T20:32:02.415Z,50.10
2023-05-10T20:34:30.891Z,50.32
2023-05-10T20:36:58.308Z,50.75
2023-05-10T20:39:25.773Z,50.58
2023-05-10T20:41:54.567Z,50.41
2023-05-10T20:44:22.123Z,50.35
2023-05-10T20:46:49.428Z,50.55
2023-05-10T20:49:17.662Z,50.24
2023-05-10T20:51:44.945Z,50.80
2023-05-10T20:54:12.286Z,50.19
2023-05-10T20:56:39.508Z,49.94
2023-05-10T20:59:06.962Z,50.21
2023-05-10T21:01:35.463Z,50.16
2023-05-10T21:04:03.528Z,49.78
2023-05-10T21:06:31.980Z,50.01
2023-05-10T21:08:59.242Z,49.76
2023-05-10T21:11:26.461Z,50.76
2023-05-10T21:13:53.859Z,51.28
2023-05-10T21:16:21.099Z,51.61
2023-05-10T21:18:48.352Z,52.72
2023-05-10T21:21:15.611Z,54.33
2023-05-10T21:23:42.813Z,54.94
2023-05-10T21:26:10.263Z,54.80
2023-05-10T21:28:40.007Z,55.30
2023-05-10T21:31:07.465Z,55.75
2023-05-10T21:33:34.735Z,55.97
2023-05-10T21:36:01.964Z,56.29
2023-05-10T21:38:29.186Z,56.52
2023-05-10T21:40:56.488Z,56.62
2023-05-10T21:43:23.677Z,56.50
2023-05-10T21:45:50.889Z,55.56
2023-05-10T21:48:18.307Z,55.03
2023-05-10T21:50:47.479Z,54.29
2023-05-10T21:53:14.715Z,53.81
2023-05-10T21:55:42.001Z,53.50
2023-05-10T21:58:09.184Z,53.41
2023-05-10T22:00:36.347Z,52.97
2023-05-10T22:03:03.600Z,52.51
2023-05-10T22:05:30.934Z,52.42
2023-05-10T22:07:58.321Z,51.87
2023-05-10T22:10:25.664Z,52.08
2023-05-10T22:12:52.888Z,51.51
2023-05-10T22:15:20.232Z,51.78
2023-05-10T22:17:47.488Z,51.67
2023-05-10T22:20:14.749Z,51.28
2023-05-10T22:22:41.951Z,51.23
2023-05-10T22:25:09.351Z,51.60
2023-05-10T22:27:36.796Z,51.16
2023-05-10T22:30:05.092Z,51.00
2023-05-10T22:32:32.934Z,51.30
2023-05-10T22:35:00.174Z,50.80
2023-05-10T22:37:27.601Z,50.38
2023-05-10T22:39:54.750Z,50.57
2023-05-10T22:42:21.929Z,50.72
2023-05-10T22:44:49.130Z,50.37
2023-05-10T22:47:16.629Z,50.53
2023-05-10T22:49:43.785Z,50.26
2023-05-10T22:52:11.233Z,50.21
2023-05-10T22:54:38.417Z,50.23
2023-05-10T22:57:05.598Z,50.00
2023-05-10T22:59:32.865Z,50.15
2023-05-10T23:02:00.064Z,49.76
2023-05-10T23:04:27.326Z,49.58
2023-05-10T23:06:54.478Z,49.84
2023-05-10T23:09:21.705Z,49.61
2023-05-10T23:11:48.922Z,49.58
2023-05-10T23:14:16.061Z,49.50
2023-05-10T23:16:43.295Z,49.67
2023-05-10T23:19:10.520Z,49.40
2023-05-10T23:21:37.924Z,49.24
2023-05-10T23:24:06.180Z,49.43
2023-05-10T23:26:33.381Z,49.60
2023-05-10T23:29:03.339Z,49.16
2023-05-10T23:31:30.775Z,49.17
2023-05-10T23:33:57.984Z,48.87
2023-05-10T23:36:25.144Z,48.77
2023-05-10T23:38:52.360Z,48.98
2023-05-10T23:41:19.545Z,48.65
2023-05-10T23:43:46.768Z,48.74
2023-05-10T23:46:14.031Z,48.90
2023-05-10T23:48:41.359Z,48.76
2023-05-10T23:51:08.850Z,48.79
2023-05-10T23:53:36.016Z,48.65
2023-05-10T23:56:03.301Z,48.82
2023-05-10T23:58:30.473Z,48.60
